sensor_id;sensor_type;location;lat;lon;timestamp;temperature;humidity
8707;DHT22;4390;49.302;9.306;2023-02-28T00:00:52;0.80;81.30
8707;DHT22;4390;49.302;9.306;2023-02-28T00:03:19;0.80;81.50
8707;DHT22;4390;49.302;9.306;2023-02-28T00:05:46;0.80;81.70
8707;DHT22;4390;49.302;9.306;2023-02-28T00:08:13;0.80;81.70
8707;DHT22;4390;49.302;9.306;2023-02-28T00:10:39;0.80;81.90
8707;DHT22;4390;49.302;9.306;2023-02-28T00:13:06;0.80;81.70
8707;DHT22;4390;49.302;9.306;2023-02-28T00:15:33;0.70;81.80
8707;DHT22;4390;49.302;9.306;2023-02-28T00:18:01;0.60;82.10
8707;DHT22;4390;49.302;9.306;2023-02-28T00:20:28;0.70;82.20
8707;DHT22;4390;49.302;9.306;2023-02-28T00:22:56;0.50;82.30
8707;DHT22;4390;49.302;9.306;2023-02-28T00:25:25;0.50;82.40
8707;DHT22;4390;49.302;9.306;2023-02-28T00:27:52;0.40;82.50
8707;DHT22;4390;49.302;9.306;2023-02-28T00:30:21;0.30;82.70
8707;DHT22;4390;49.302;9.306;2023-02-28T00:32:49;0.10;82.90
8707;DHT22;4390;49.302;9.306;2023-02-28T00:35:16;0.20;83.10
8707;DHT22;4390;49.302;9.306;2023-02-28T00:37:43;0.20;83.10
8707;DHT22;4390;49.302;9.306;2023-02-28T00:40:11;0.20;83.20
8707;DHT22;4390;49.302;9.306;2023-02-28T00:42:39;0.30;83.10
8707;DHT22;4390;49.302;9.306;2023-02-28T00:45:07;0.30;82.90
8707;DHT22;4390;49.302;9.306;2023-02-28T00:47:37;0.10;82.80
8707;DHT22;4390;49.302;9.306;2023-02-28T00:50:04;0.20;83.10
8707;DHT22;4390;49.302;9.306;2023-02-28T00:52:31;0.40;82.90
8707;DHT22;4390;49.302;9.306;2023-02-28T00:54:58;0.40;82.70
8707;DHT22;4390;49.302;9.306;2023-02-28T00:57:24;0.20;82.70
8707;DHT22;4390;49.302;9.306;2023-02-28T00:59:51;0.10;83.10
8707;DHT22;4390;49.302;9.306;2023-02-28T01:02:22;0.10;83.20
8707;DHT22;4390;49.302;9.306;2023-02-28T01:04:51;0.00;83.20
8707;DHT22;4390;49.302;9.306;2023-02-28T01:07:18;-0.10;83.60
8707;DHT22;4390;49.302;9.306;2023-02-28T01:09:45;-0.10;83.70
8707;DHT22;4390;49.302;9.306;2023-02-28T01:12:12;-0.20;83.80
8707;DHT22;4390;49.302;9.306;2023-02-28T01:14:39;-0.20;83.80
8707;DHT22;4390;49.302;9.306;2023-02-28T01:17:06;-0.20;83.80
8707;DHT22;4390;49.302;9.306;2023-02-28T01:19:32;-0.10;83.80
8707;DHT22;4390;49.302;9.306;2023-02-28T01:22:03;-0.30;83.80
8707;DHT22;4390;49.302;9.306;2023-02-28T01:24:31;-0.30;84.10
8707;DHT22;4390;49.302;9.306;2023-02-28T01:27:00;-0.40;84.40
8707;DHT22;4390;49.302;9.306;2023-02-28T01:29:26;-0.60;84.60
8707;DHT22;4390;49.302;9.306;2023-02-28T01:31:53;-0.70;85.00
8707;DHT22;4390;49.302;9.306;2023-02-28T01:34:20;-0.70;85.10
8707;DHT22;4390;49.302;9.306;2023-02-28T01:36:47;-0.50;85.20
8707;DHT22;4390;49.302;9.306;2023-02-28T01:39:13;-0.50;84.80
8707;DHT22;4390;49.302;9.306;2023-02-28T01:41:40;-0.50;84.80
8707;DHT22;4390;49.302;9.306;2023-02-28T01:47:11;-0.30;84.40
8707;DHT22;4390;49.302;9.306;2023-02-28T01:49:39;-0.40;84.40
8707;DHT22;4390;49.302;9.306;2023-02-28T01:52:06;-0.70;84.60
8707;DHT22;4390;49.302;9.306;2023-02-28T01:54:34;-0.60;85.10
8707;DHT22;4390;49.302;9.306;2023-02-28T01:57:11;-0.50;84.70
8707;DHT22;4390;49.302;9.306;2023-02-28T01:59:51;-0.60;84.80
8707;DHT22;4390;49.302;9.306;2023-02-28T02:02:21;-0.70;84.90
8707;DHT22;4390;49.302;9.306;2023-02-28T02:05:04;-0.70;84.90
8707;DHT22;4390;49.302;9.306;2023-02-28T02:07:35;-0.70;84.90
8707;DHT22;4390;49.302;9.306;2023-02-28T02:17:57;-0.90;85.20
8707;DHT22;4390;49.302;9.306;2023-02-28T02:20:56;-0.80;85.30
8707;DHT22;4390;49.302;9.306;2023-02-28T02:38:00;-1.10;85.30
8707;DHT22;4390;49.302;9.306;2023-02-28T02:40:38;-1.30;85.90
8707;DHT22;4390;49.302;9.306;2023-02-28T02:43:16;-1.30;86.10
8707;DHT22;4390;49.302;9.306;2023-02-28T02:45:51;-1.20;85.90
8707;DHT22;4390;49.302;9.306;2023-02-28T02:48:27;-1.30;86.10
8707;DHT22;4390;49.302;9.306;2023-02-28T02:50:59;-1.30;86.10
8707;DHT22;4390;49.302;9.306;2023-02-28T02:53:40;-1.30;86.30
8707;DHT22;4390;49.302;9.306;2023-02-28T02:56:08;-1.10;85.90
8707;DHT22;4390;49.302;9.306;2023-02-28T02:58:40;-0.90;85.70
8707;DHT22;4390;49.302;9.306;2023-02-28T03:01:18;-0.90;85.60
8707;DHT22;4390;49.302;9.306;2023-02-28T03:04:02;-0.90;85.30
8707;DHT22;4390;49.302;9.306;2023-02-28T03:06:29;-1.00;85.40
8707;DHT22;4390;49.302;9.306;2023-02-28T03:08:57;-1.00;85.50
8707;DHT22;4390;49.302;9.306;2023-02-28T03:11:23;-1.10;85.60
8707;DHT22;4390;49.302;9.306;2023-02-28T03:14:03;-1.10;85.80
8707;DHT22;4390;49.302;9.306;2023-02-28T03:16:54;-1.10;85.50
8707;DHT22;4390;49.302;9.306;2023-02-28T03:22:04;-1.20;85.80
8707;DHT22;4390;49.302;9.306;2023-02-28T03:30:27;-1.30;85.90
8707;DHT22;4390;49.302;9.306;2023-02-28T03:35:43;-1.40;86.50
8707;DHT22;4390;49.302;9.306;2023-02-28T03:38:20;-1.50;86.50
8707;DHT22;4390;49.302;9.306;2023-02-28T03:40:52;-1.40;86.70
8707;DHT22;4390;49.302;9.306;2023-02-28T03:43:29;-1.50;86.90
8707;DHT22;4390;49.302;9.306;2023-02-28T03:45:56;-1.40;86.80
8707;DHT22;4390;49.302;9.306;2023-02-28T03:48:36;-1.30;86.90
8707;DHT22;4390;49.302;9.306;2023-02-28T03:51:08;-1.10;86.50
8707;DHT22;4390;49.302;9.306;2023-02-28T03:53:39;-1.00;86.00
8707;DHT22;4390;49.302;9.306;2023-02-28T03:56:15;-0.90;85.70
8707;DHT22;4390;49.302;9.306;2023-02-28T04:01:27;-1.00;85.60
8707;DHT22;4390;49.302;9.306;2023-02-28T04:03:57;-1.20;86.10
8707;DHT22;4390;49.302;9.306;2023-02-28T04:06:24;-1.20;86.40
8707;DHT22;4390;49.302;9.306;2023-02-28T04:08:51;-1.10;86.40
8707;DHT22;4390;49.302;9.306;2023-02-28T04:11:33;-0.80;86.10
8707;DHT22;4390;49.302;9.306;2023-02-28T04:14:02;-0.70;85.50
8707;DHT22;4390;49.302;9.306;2023-02-28T04:16:31;-0.70;85.30
8707;DHT22;4390;49.302;9.306;2023-02-28T04:19:03;-0.60;85.20
8707;DHT22;4390;49.302;9.306;2023-02-28T04:21:36;-0.50;84.80
8707;DHT22;4390;49.302;9.306;2023-02-28T04:24:06;-0.60;84.90
8707;DHT22;4390;49.302;9.306;2023-02-28T04:26:35;-0.50;85.10
8707;DHT22;4390;49.302;9.306;2023-02-28T04:29:04;-0.50;84.90
8707;DHT22;4390;49.302;9.306;2023-02-28T04:31:31;-0.40;84.80
8707;DHT22;4390;49.302;9.306;2023-02-28T04:33:59;-0.40;84.50
8707;DHT22;4390;49.302;9.306;2023-02-28T04:36:26;-0.40;84.60
8707;DHT22;4390;49.302;9.306;2023-02-28T04:38:53;-0.60;85.00
8707;DHT22;4390;49.302;9.306;2023-02-28T04:41:20;-0.60;85.10
8707;DHT22;4390;49.302;9.306;2023-02-28T04:43:47;-0.60;85.00
8707;DHT22;4390;49.302;9.306;2023-02-28T04:46:14;-0.60;84.80
8707;DHT22;4390;49.302;9.306;2023-02-28T04:48:41;-0.50;84.70
8707;DHT22;4390;49.302;9.306;2023-02-28T04:51:12;-0.40;84.60
8707;DHT22;4390;49.302;9.306;2023-02-28T04:53:40;-0.50;84.70
8707;DHT22;4390;49.302;9.306;2023-02-28T04:56:10;-0.60;84.90
8707;DHT22;4390;49.302;9.306;2023-02-28T04:58:37;-0.70;85.00
8707;DHT22;4390;49.302;9.306;2023-02-28T05:01:06;-0.80;85.00
8707;DHT22;4390;49.302;9.306;2023-02-28T05:03:39;-1.00;85.40
8707;DHT22;4390;49.302;9.306;2023-02-28T05:06:10;-0.90;85.70
8707;DHT22;4390;49.302;9.306;2023-02-28T05:08:37;-1.00;85.60
8707;DHT22;4390;49.302;9.306;2023-02-28T05:11:07;-0.90;85.70
8707;DHT22;4390;49.302;9.306;2023-02-28T05:13:34;-0.80;85.70
8707;DHT22;4390;49.302;9.306;2023-02-28T05:16:02;-0.80;85.40
8707;DHT22;4390;49.302;9.306;2023-02-28T05:18:28;-0.80;85.20
8707;DHT22;4390;49.302;9.306;2023-02-28T05:20:55;-0.70;85.20
8707;DHT22;4390;49.302;9.306;2023-02-28T05:23:22;-0.70;85.20
8707;DHT22;4390;49.302;9.306;2023-02-28T05:25:49;-0.60;85.20
8707;DHT22;4390;49.302;9.306;2023-02-28T05:28:16;-0.70;84.90
8707;DHT22;4390;49.302;9.306;2023-02-28T05:30:43;-0.80;84.80
8707;DHT22;4390;49.302;9.306;2023-02-28T05:33:11;-0.80;85.10
8707;DHT22;4390;49.302;9.306;2023-02-28T05:35:40;-0.80;85.10
8707;DHT22;4390;49.302;9.306;2023-02-28T05:38:07;-0.80;85.30
8707;DHT22;4390;49.302;9.306;2023-02-28T05:40:34;-0.90;85.30
8707;DHT22;4390;49.302;9.306;2023-02-28T05:43:01;-0.80;85.40
8707;DHT22;4390;49.302;9.306;2023-02-28T05:45:27;-0.70;85.10
8707;DHT22;4390;49.302;9.306;2023-02-28T05:47:55;-0.70;84.70
8707;DHT22;4390;49.302;9.306;2023-02-28T05:50:22;-0.80;85.10
8707;DHT22;4390;49.302;9.306;2023-02-28T05:52:51;-0.80;85.10
8707;DHT22;4390;49.302;9.306;2023-02-28T05:55:19;-0.90;85.10
8707;DHT22;4390;49.302;9.306;2023-02-28T05:57:46;-0.90;85.30
8707;DHT22;4390;49.302;9.306;2023-02-28T06:00:13;-0.80;85.30
8707;DHT22;4390;49.302;9.306;2023-02-28T06:02:42;-0.80;84.90
8707;DHT22;4390;49.302;9.306;2023-02-28T06:05:15;-0.70;84.90
8707;DHT22;4390;49.302;9.306;2023-02-28T06:07:43;-0.80;84.90
8707;DHT22;4390;49.302;9.306;2023-02-28T06:10:11;-0.90;85.30
8707;DHT22;4390;49.302;9.306;2023-02-28T06:12:38;-1.00;85.20
8707;DHT22;4390;49.302;9.306;2023-02-28T06:15:05;-1.10;85.40
8707;DHT22;4390;49.302;9.306;2023-02-28T06:17:32;-1.10;85.50
8707;DHT22;4390;49.302;9.306;2023-02-28T06:19:58;-1.10;85.70
8707;DHT22;4390;49.302;9.306;2023-02-28T06:22:25;-1.10;85.50
8707;DHT22;4390;49.302;9.306;2023-02-28T06:24:52;-1.10;85.60
8707;DHT22;4390;49.302;9.306;2023-02-28T06:27:19;-1.20;85.50
8707;DHT22;4390;49.302;9.306;2023-02-28T06:29:46;-1.20;85.60
8707;DHT22;4390;49.302;9.306;2023-02-28T06:32:13;-1.50;85.90
8707;DHT22;4390;49.302;9.306;2023-02-28T06:34:40;-1.50;86.30
8707;DHT22;4390;49.302;9.306;2023-02-28T06:37:07;-1.20;86.00
8707;DHT22;4390;49.302;9.306;2023-02-28T06:39:34;-1.30;85.90
8707;DHT22;4390;49.302;9.306;2023-02-28T06:42:01;-1.40;86.10
8707;DHT22;4390;49.302;9.306;2023-02-28T06:44:27;-1.40;86.10
8707;DHT22;4390;49.302;9.306;2023-02-28T06:47:04;-1.40;86.20
8707;DHT22;4390;49.302;9.306;2023-02-28T06:49:33;-1.40;86.40
8707;DHT22;4390;49.302;9.306;2023-02-28T06:52:00;-1.30;86.10
8707;DHT22;4390;49.302;9.306;2023-02-28T06:54:27;-1.40;86.20
8707;DHT22;4390;49.302;9.306;2023-02-28T06:56:54;-1.60;86.50
8707;DHT22;4390;49.302;9.306;2023-02-28T06:59:21;-1.80;86.80
8707;DHT22;4390;49.302;9.306;2023-02-28T07:01:47;-1.90;87.10
8707;DHT22;4390;49.302;9.306;2023-02-28T07:04:15;-1.80;87.60
8707;DHT22;4390;49.302;9.306;2023-02-28T07:06:41;-1.60;87.20
8707;DHT22;4390;49.302;9.306;2023-02-28T07:09:08;-1.50;86.90
8707;DHT22;4390;49.302;9.306;2023-02-28T07:11:35;-1.60;86.90
8707;DHT22;4390;49.302;9.306;2023-02-28T07:14:01;-1.60;87.20
8707;DHT22;4390;49.302;9.306;2023-02-28T07:16:28;-1.40;86.80
8707;DHT22;4390;49.302;9.306;2023-02-28T07:18:55;-1.40;86.70
8707;DHT22;4390;49.302;9.306;2023-02-28T07:21:22;-1.50;86.60
8707;DHT22;4390;49.302;9.306;2023-02-28T07:23:50;-1.40;87.00
8707;DHT22;4390;49.302;9.306;2023-02-28T07:26:18;-1.20;86.60
8707;DHT22;4390;49.302;9.306;2023-02-28T07:28:47;-1.20;86.40
8707;DHT22;4390;49.302;9.306;2023-02-28T07:31:14;-1.10;86.40
8707;DHT22;4390;49.302;9.306;2023-02-28T07:33:41;-1.10;86.50
8707;DHT22;4390;49.302;9.306;2023-02-28T07:36:16;-1.00;86.00
8707;DHT22;4390;49.302;9.306;2023-02-28T07:38:46;-0.80;86.00
8707;DHT22;4390;49.302;9.306;2023-02-28T07:41:21;-0.70;85.80
8707;DHT22;4390;49.302;9.306;2023-02-28T07:43:48;-0.50;85.30
8707;DHT22;4390;49.302;9.306;2023-02-28T07:46:16;-0.60;85.10
8707;DHT22;4390;49.302;9.306;2023-02-28T07:48:43;-0.80;85.30
8707;DHT22;4390;49.302;9.306;2023-02-28T07:51:10;-1.00;85.70
8707;DHT22;4390;49.302;9.306;2023-02-28T07:53:37;-1.20;86.00
8707;DHT22;4390;49.302;9.306;2023-02-28T07:56:04;-1.10;86.60
8707;DHT22;4390;49.302;9.306;2023-02-28T07:58:31;-0.90;86.40
8707;DHT22;4390;49.302;9.306;2023-02-28T08:01:08;-0.90;86.10
8707;DHT22;4390;49.302;9.306;2023-02-28T08:03:36;-1.00;86.20
8707;DHT22;4390;49.302;9.306;2023-02-28T08:06:04;-0.80;86.50
8707;DHT22;4390;49.302;9.306;2023-02-28T08:08:32;-0.70;86.20
8707;DHT22;4390;49.302;9.306;2023-02-28T08:11:02;-0.50;85.80
8707;DHT22;4390;49.302;9.306;2023-02-28T08:13:30;-0.40;85.60
8707;DHT22;4390;49.302;9.306;2023-02-28T08:15:57;-0.60;85.40
8707;DHT22;4390;49.302;9.306;2023-02-28T08:18:23;-1.10;85.80
8707;DHT22;4390;49.302;9.306;2023-02-28T08:20:50;-1.10;86.70
8707;DHT22;4390;49.302;9.306;2023-02-28T08:23:17;-1.00;86.70
8707;DHT22;4390;49.302;9.306;2023-02-28T08:25:44;-0.90;86.60
8707;DHT22;4390;49.302;9.306;2023-02-28T08:28:10;-0.70;86.40
8707;DHT22;4390;49.302;9.306;2023-02-28T08:30:37;-0.60;86.20
8707;DHT22;4390;49.302;9.306;2023-02-28T08:33:04;-0.50;85.90
8707;DHT22;4390;49.302;9.306;2023-02-28T08:35:31;-0.30;85.60
8707;DHT22;4390;49.302;9.306;2023-02-28T08:37:58;-0.20;85.50
8707;DHT22;4390;49.302;9.306;2023-02-28T08:40:24;-0.30;85.30
8707;DHT22;4390;49.302;9.306;2023-02-28T08:42:51;-0.40;85.20
8707;DHT22;4390;49.302;9.306;2023-02-28T08:45:18;-0.60;85.40
8707;DHT22;4390;49.302;9.306;2023-02-28T08:47:45;-0.50;85.80
8707;DHT22;4390;49.302;9.306;2023-02-28T08:50:11;-0.30;85.60
8707;DHT22;4390;49.302;9.306;2023-02-28T08:52:44;-0.30;84.90
8707;DHT22;4390;49.302;9.306;2023-02-28T08:55:11;-0.30;85.10
8707;DHT22;4390;49.302;9.306;2023-02-28T08:57:37;-0.30;84.70
8707;DHT22;4390;49.302;9.306;2023-02-28T09:00:05;-0.40;84.90
8707;DHT22;4390;49.302;9.306;2023-02-28T09:02:31;-0.40;85.10
8707;DHT22;4390;49.302;9.306;2023-02-28T09:04:58;-0.20;84.90
8707;DHT22;4390;49.302;9.306;2023-02-28T09:07:25;-0.20;84.50
8707;DHT22;4390;49.302;9.306;2023-02-28T09:09:52;0.10;84.60
8707;DHT22;4390;49.302;9.306;2023-02-28T09:12:23;0.30;84.20
8707;DHT22;4390;49.302;9.306;2023-02-28T09:14:50;0.50;83.70
8707;DHT22;4390;49.302;9.306;2023-02-28T09:17:17;0.40;83.50
8707;DHT22;4390;49.302;9.306;2023-02-28T09:19:44;0.60;83.30
8707;DHT22;4390;49.302;9.306;2023-02-28T09:22:11;0.70;83.20
8707;DHT22;4390;49.302;9.306;2023-02-28T09:24:38;0.70;83.00
8707;DHT22;4390;49.302;9.306;2023-02-28T09:27:05;0.90;83.10
8707;DHT22;4390;49.302;9.306;2023-02-28T09:29:34;0.90;82.60
8707;DHT22;4390;49.302;9.306;2023-02-28T09:32:01;0.90;82.40
8707;DHT22;4390;49.302;9.306;2023-02-28T09:34:28;1.00;82.40
8707;DHT22;4390;49.302;9.306;2023-02-28T09:36:57;1.10;82.40
8707;DHT22;4390;49.302;9.306;2023-02-28T09:39:24;1.30;82.00
8707;DHT22;4390;49.302;9.306;2023-02-28T09:41:54;1.20;81.40
8707;DHT22;4390;49.302;9.306;2023-02-28T09:46:55;1.20;81.90
8707;DHT22;4390;49.302;9.306;2023-02-28T09:49:25;1.40;81.40
8707;DHT22;4390;49.302;9.306;2023-02-28T09:54:29;1.50;80.80
8707;DHT22;4390;49.302;9.306;2023-02-28T10:00:24;1.80;80.50
8707;DHT22;4390;49.302;9.306;2023-02-28T10:03:26;1.90;80.40
8707;DHT22;4390;49.302;9.306;2023-02-28T10:06:10;2.00;80.00
8707;DHT22;4390;49.302;9.306;2023-02-28T10:08:57;2.10;80.10
8707;DHT22;4390;49.302;9.306;2023-02-28T10:11:26;2.20;79.70
8707;DHT22;4390;49.302;9.306;2023-02-28T10:13:56;2.40;79.20
8707;DHT22;4390;49.302;9.306;2023-02-28T10:16:32;2.80;79.00
8707;DHT22;4390;49.302;9.306;2023-02-28T10:19:09;3.60;78.00
8707;DHT22;4390;49.302;9.306;2023-02-28T10:21:46;4.40;76.70
8707;DHT22;4390;49.302;9.306;2023-02-28T10:24:29;5.50;75.10
8707;DHT22;4390;49.302;9.306;2023-02-28T10:27:01;6.10;73.80
8707;DHT22;4390;49.302;9.306;2023-02-28T10:29:32;7.00;72.70
8707;DHT22;4390;49.302;9.306;2023-02-28T10:32:01;7.60;71.40
8707;DHT22;4390;49.302;9.306;2023-02-28T10:34:29;8.40;70.30
8707;DHT22;4390;49.302;9.306;2023-02-28T10:36:56;9.20;69.20
8707;DHT22;4390;49.302;9.306;2023-02-28T10:39:46;10.00;67.90
8707;DHT22;4390;49.302;9.306;2023-02-28T10:42:26;10.10;66.80
8707;DHT22;4390;49.302;9.306;2023-02-28T10:45:16;10.00;66.60
8707;DHT22;4390;49.302;9.306;2023-02-28T10:47:58;10.10;66.30
8707;DHT22;4390;49.302;9.306;2023-02-28T10:50:30;10.60;66.30
8707;DHT22;4390;49.302;9.306;2023-02-28T10:53:15;10.40;65.80
8707;DHT22;4390;49.302;9.306;2023-02-28T10:55:43;10.50;65.50
8707;DHT22;4390;49.302;9.306;2023-02-28T10:58:24;11.10;65.10
8707;DHT22;4390;49.302;9.306;2023-02-28T11:00:51;12.10;64.50
8707;DHT22;4390;49.302;9.306;2023-02-28T11:03:29;13.50;63.20
8707;DHT22;4390;49.302;9.306;2023-02-28T11:05:56;13.90;61.50
8707;DHT22;4390;49.302;9.306;2023-02-28T11:08:23;13.30;61.90
8707;DHT22;4390;49.302;9.306;2023-02-28T11:10:56;13.80;61.60
8707;DHT22;4390;49.302;9.306;2023-02-28T11:13:33;14.40;61.10
8707;DHT22;4390;49.302;9.306;2023-02-28T11:16:04;14.80;60.90
8707;DHT22;4390;49.302;9.306;2023-02-28T11:18:52;15.50;59.90
8707;DHT22;4390;49.302;9.306;2023-02-28T11:23:47;13.40;59.90
8707;DHT22;4390;49.302;9.306;2023-02-28T11:26:16;12.10;61.90
8707;DHT22;4390;49.302;9.306;2023-02-28T11:29:23;12.70;62.00
8707;DHT22;4390;49.302;9.306;2023-02-28T11:34:36;13.40;60.80
8707;DHT22;4390;49.302;9.306;2023-02-28T11:37:08;13.30;60.50
8707;DHT22;4390;49.302;9.306;2023-02-28T11:39:36;13.80;60.30
8707;DHT22;4390;49.302;9.306;2023-02-28T11:42:29;13.80;60.10
8707;DHT22;4390;49.302;9.306;2023-02-28T11:50:20;12.60;61.30
8707;DHT22;4390;49.302;9.306;2023-02-28T11:52:54;12.70;61.60
8707;DHT22;4390;49.302;9.306;2023-02-28T11:55:52;12.70;60.90
8707;DHT22;4390;49.302;9.306;2023-02-28T11:58:50;11.30;62.00
8707;DHT22;4390;49.302;9.306;2023-02-28T12:04:48;11.20;63.00
8707;DHT22;4390;49.302;9.306;2023-02-28T12:10:20;10.70;63.20
8707;DHT22;4390;49.302;9.306;2023-02-28T12:21:44;7.70;67.30
8707;DHT22;4390;49.302;9.306;2023-02-28T12:26:44;9.30;66.30
8707;DHT22;4390;49.302;9.306;2023-02-28T12:29:17;9.90;65.50
8707;DHT22;4390;49.302;9.306;2023-02-28T12:31:57;10.20;64.80
8707;DHT22;4390;49.302;9.306;2023-02-28T12:34:30;10.40;64.90
8707;DHT22;4390;49.302;9.306;2023-02-28T12:37:03;10.30;64.70
8707;DHT22;4390;49.302;9.306;2023-02-28T12:39:41;10.50;65.10
8707;DHT22;4390;49.302;9.306;2023-02-28T12:42:28;10.90;64.90
8707;DHT22;4390;49.302;9.306;2023-02-28T12:45:02;11.30;63.90
8707;DHT22;4390;49.302;9.306;2023-02-28T12:47:29;11.00;63.80
8707;DHT22;4390;49.302;9.306;2023-02-28T12:50:08;10.80;64.00
8707;DHT22;4390;49.302;9.306;2023-02-28T12:53:05;10.90;64.30
8707;DHT22;4390;49.302;9.306;2023-02-28T12:58:13;10.80;64.10
8707;DHT22;4390;49.302;9.306;2023-02-28T13:00:57;10.60;64.30
8707;DHT22;4390;49.302;9.306;2023-02-28T13:03:50;10.70;64.20
8707;DHT22;4390;49.302;9.306;2023-02-28T13:06:41;10.10;64.20
8707;DHT22;4390;49.302;9.306;2023-02-28T13:09:13;9.20;64.60
8707;DHT22;4390;49.302;9.306;2023-02-28T13:11:46;8.00;66.80
8707;DHT22;4390;49.302;9.306;2023-02-28T13:14:26;8.10;67.20
8707;DHT22;4390;49.302;9.306;2023-02-28T13:17:09;8.00;67.30
8707;DHT22;4390;49.302;9.306;2023-02-28T13:19:42;8.40;67.60
8707;DHT22;4390;49.302;9.306;2023-02-28T13:25:02;9.20;67.00
8707;DHT22;4390;49.302;9.306;2023-02-28T13:27:36;9.10;66.30
8707;DHT22;4390;49.302;9.306;2023-02-28T13:38:51;7.60;68.40
8707;DHT22;4390;49.302;9.306;2023-02-28T13:44:04;8.30;67.80
8707;DHT22;4390;49.302;9.306;2023-02-28T13:46:38;9.20;67.00
8707;DHT22;4390;49.302;9.306;2023-02-28T13:51:52;9.50;65.30
8707;DHT22;4390;49.302;9.306;2023-02-28T13:54:22;8.90;66.30
8707;DHT22;4390;49.302;9.306;2023-02-28T13:59:51;9.10;66.70
8707;DHT22;4390;49.302;9.306;2023-02-28T14:05:19;9.30;65.80
8707;DHT22;4390;49.302;9.306;2023-02-28T14:08:24;9.10;66.10
8707;DHT22;4390;49.302;9.306;2023-02-28T14:10:50;9.10;66.10
8707;DHT22;4390;49.302;9.306;2023-02-28T14:13:37;9.40;65.90
8707;DHT22;4390;49.302;9.306;2023-02-28T14:16:13;8.90;65.70
8707;DHT22;4390;49.302;9.306;2023-02-28T14:18:51;8.30;66.80
8707;DHT22;4390;49.302;9.306;2023-02-28T14:21:26;8.70;67.00
8707;DHT22;4390;49.302;9.306;2023-02-28T14:29:25;9.40;65.30
8707;DHT22;4390;49.302;9.306;2023-02-28T14:37:38;9.30;66.70
8707;DHT22;4390;49.302;9.306;2023-02-28T14:40:16;9.90;65.70
8707;DHT22;4390;49.302;9.306;2023-02-28T14:42:54;10.20;65.20
8707;DHT22;4390;49.302;9.306;2023-02-28T14:45:22;10.40;65.00
8707;DHT22;4390;49.302;9.306;2023-02-28T14:47:50;9.90;64.70
8707;DHT22;4390;49.302;9.306;2023-02-28T14:50:24;9.00;66.30
8707;DHT22;4390;49.302;9.306;2023-02-28T14:52:53;8.50;66.80
8707;DHT22;4390;49.302;9.306;2023-02-28T14:55:30;8.20;67.40
8707;DHT22;4390;49.302;9.306;2023-02-28T14:57:59;7.80;67.90
8707;DHT22;4390;49.302;9.306;2023-02-28T15:00:31;7.70;68.40
8707;DHT22;4390;49.302;9.306;2023-02-28T15:03:00;7.50;68.90
8707;DHT22;4390;49.302;9.306;2023-02-28T15:05:32;7.70;68.70
8707;DHT22;4390;49.302;9.306;2023-02-28T15:10:28;8.00;68.50
8707;DHT22;4390;49.302;9.306;2023-02-28T15:12:59;8.30;68.40
8707;DHT22;4390;49.302;9.306;2023-02-28T15:21:07;8.40;67.80
8707;DHT22;4390;49.302;9.306;2023-02-28T15:23:36;7.60;68.20
8707;DHT22;4390;49.302;9.306;2023-02-28T15:26:03;7.40;69.00
8707;DHT22;4390;49.302;9.306;2023-02-28T15:28:31;7.50;69.50
8707;DHT22;4390;49.302;9.306;2023-02-28T15:31:01;7.40;69.60
8707;DHT22;4390;49.302;9.306;2023-02-28T15:33:30;7.40;69.40
8707;DHT22;4390;49.302;9.306;2023-02-28T15:36:13;7.10;69.20
8707;DHT22;4390;49.302;9.306;2023-02-28T15:38:42;7.00;69.80
8707;DHT22;4390;49.302;9.306;2023-02-28T15:41:25;7.00;69.70
8707;DHT22;4390;49.302;9.306;2023-02-28T15:46:54;6.60;70.20
8707;DHT22;4390;49.302;9.306;2023-02-28T15:49:22;6.50;70.60
8707;DHT22;4390;49.302;9.306;2023-02-28T15:51:55;6.50;70.90
8707;DHT22;4390;49.302;9.306;2023-02-28T15:54:28;6.40;71.20
8707;DHT22;4390;49.302;9.306;2023-02-28T15:56:57;6.40;71.20
8707;DHT22;4390;49.302;9.306;2023-02-28T15:59:28;6.20;71.40
8707;DHT22;4390;49.302;9.306;2023-02-28T16:02:15;6.30;71.70
8707;DHT22;4390;49.302;9.306;2023-02-28T16:07:38;6.10;71.10
8707;DHT22;4390;49.302;9.306;2023-02-28T16:10:08;6.00;71.30
8707;DHT22;4390;49.302;9.306;2023-02-28T16:12:37;5.90;71.90
8707;DHT22;4390;49.302;9.306;2023-02-28T16:15:15;5.90;71.60
8707;DHT22;4390;49.302;9.306;2023-02-28T16:17:44;5.70;72.20
8707;DHT22;4390;49.302;9.306;2023-02-28T16:22:44;5.70;72.30
8707;DHT22;4390;49.302;9.306;2023-02-28T16:25:13;5.60;72.30
8707;DHT22;4390;49.302;9.306;2023-02-28T16:27:41;5.20;72.50
8707;DHT22;4390;49.302;9.306;2023-02-28T16:30:20;5.00;73.30
8707;DHT22;4390;49.302;9.306;2023-02-28T16:32:49;5.10;73.60
8707;DHT22;4390;49.302;9.306;2023-02-28T16:35:17;5.10;73.50
8707;DHT22;4390;49.302;9.306;2023-02-28T16:37:44;5.20;73.20
8707;DHT22;4390;49.302;9.306;2023-02-28T16:40:16;5.20;73.30
8707;DHT22;4390;49.302;9.306;2023-02-28T16:42:45;5.30;73.50
8707;DHT22;4390;49.302;9.306;2023-02-28T16:45:18;5.40;73.40
8707;DHT22;4390;49.302;9.306;2023-02-28T16:47:46;5.30;73.30
8707;DHT22;4390;49.302;9.306;2023-02-28T16:50:19;5.10;73.60
8707;DHT22;4390;49.302;9.306;2023-02-28T16:52:47;4.90;73.90
8707;DHT22;4390;49.302;9.306;2023-02-28T16:55:15;4.70;74.30
8707;DHT22;4390;49.302;9.306;2023-02-28T16:57:43;4.70;74.30
8707;DHT22;4390;49.302;9.306;2023-02-28T17:00:12;4.60;74.40
8707;DHT22;4390;49.302;9.306;2023-02-28T17:02:40;4.70;74.20
8707;DHT22;4390;49.302;9.306;2023-02-28T17:05:11;4.80;74.30
8707;DHT22;4390;49.302;9.306;2023-02-28T17:07:39;4.70;74.10
8707;DHT22;4390;49.302;9.306;2023-02-28T17:10:18;4.70;74.00
8707;DHT22;4390;49.302;9.306;2023-02-28T17:12:45;4.60;74.30
8707;DHT22;4390;49.302;9.306;2023-02-28T17:15:13;4.70;74.40
8707;DHT22;4390;49.302;9.306;2023-02-28T17:17:41;4.90;74.40
8707;DHT22;4390;49.302;9.306;2023-02-28T17:20:19;4.90;74.20
8707;DHT22;4390;49.302;9.306;2023-02-28T17:22:50;4.90;74.20
8707;DHT22;4390;49.302;9.306;2023-02-28T17:25:17;4.80;74.30
8707;DHT22;4390;49.302;9.306;2023-02-28T17:27:45;4.70;74.60
8707;DHT22;4390;49.302;9.306;2023-02-28T17:30:21;4.50;75.00
8707;DHT22;4390;49.302;9.306;2023-02-28T17:32:47;4.50;75.20
8707;DHT22;4390;49.302;9.306;2023-02-28T17:35:15;4.60;75.00
8707;DHT22;4390;49.302;9.306;2023-02-28T17:37:42;4.50;75.10
8707;DHT22;4390;49.302;9.306;2023-02-28T17:40:14;4.60;75.20
8707;DHT22;4390;49.302;9.306;2023-02-28T17:42:42;4.50;75.90
8707;DHT22;4390;49.302;9.306;2023-02-28T17:45:11;4.40;75.80
8707;DHT22;4390;49.302;9.306;2023-02-28T17:47:38;4.30;75.70
8707;DHT22;4390;49.302;9.306;2023-02-28T17:50:14;4.20;75.80
8707;DHT22;4390;49.302;9.306;2023-02-28T17:52:41;4.30;75.70
8707;DHT22;4390;49.302;9.306;2023-02-28T17:55:11;4.10;75.80
8707;DHT22;4390;49.302;9.306;2023-02-28T17:57:42;4.00;76.20
8707;DHT22;4390;49.302;9.306;2023-02-28T18:00:17;4.00;76.40
8707;DHT22;4390;49.302;9.306;2023-02-28T18:02:44;3.90;76.50
8707;DHT22;4390;49.302;9.306;2023-02-28T18:05:12;3.80;76.80
8707;DHT22;4390;49.302;9.306;2023-02-28T18:07:48;3.80;77.00
8707;DHT22;4390;49.302;9.306;2023-02-28T18:10:18;3.80;77.20
8707;DHT22;4390;49.302;9.306;2023-02-28T18:12:51;3.70;77.40
8707;DHT22;4390;49.302;9.306;2023-02-28T18:15:19;3.80;77.30
8707;DHT22;4390;49.302;9.306;2023-02-28T18:17:47;3.80;77.30
8707;DHT22;4390;49.302;9.306;2023-02-28T18:20:14;3.70;77.30
8707;DHT22;4390;49.302;9.306;2023-02-28T18:22:41;3.70;77.20
8707;DHT22;4390;49.302;9.306;2023-02-28T18:25:09;3.60;77.50
8707;DHT22;4390;49.302;9.306;2023-02-28T18:27:40;3.70;77.40
8707;DHT22;4390;49.302;9.306;2023-02-28T18:30:20;3.60;77.40
8707;DHT22;4390;49.302;9.306;2023-02-28T18:32:47;3.60;77.50
8707;DHT22;4390;49.302;9.306;2023-02-28T18:35:14;3.40;77.90
8707;DHT22;4390;49.302;9.306;2023-02-28T18:37:43;3.40;77.90
8707;DHT22;4390;49.302;9.306;2023-02-28T18:40:10;3.40;78.30
8707;DHT22;4390;49.302;9.306;2023-02-28T18:42:37;3.20;78.40